Detalii statie AGROSAMI SACALAZ [00001988]

Toti senzorii

Date Temperatura solului [C]Precipitatii [mm]Voltaj baterie [mV]Leaf Wetness [Min]HC Air temperature [C]HC Relative humidity [%]Punctul de roua [C]
medieminmaxsumaultimatimpmedieminmaxmediemediemin
2019-02-21 00:00:00 0 6874 0.94 0.55 1.21 20.92 0
2019-02-21 01:00:00 0 6904 0.95 0.5 1.31 9.9 0
2019-02-21 02:00:00 0 6922 -0.13 -0.75 0.57 0.07 0 0
2019-02-21 03:00:00 0 6932 -1.93 -2.56 -0.96 0.23 0
2019-02-21 04:00:00 0 6884 -2.57 -2.87 -2.08 0.5 0
2019-02-21 05:00:00 0 6914 -2.81 -3.63 -2 3.07 -4.1 0
2019-02-21 06:00:00 0 6904 -2.23 -2.46 -2.06 0 0 0
2019-02-21 07:00:00 0 6904 -3.33 -4.15 -2.43 1.24 0
2019-02-21 08:00:00 0 6894 -3.84 -4.48 -2.93 5.76 -2.9 0
2019-02-21 09:00:00 0 6992 -1.73 -2.58 -0.28 0 0 0
2019-02-21 10:00:00 0 7314 2.65 0.22 5.42 0.17 0
2019-02-21 11:00:00 0 7342 7.9 6.2 8.94 2.25 0
2019-02-21 12:00:00 0 7332 9.68 8.23 10.87 0 0 0
2019-02-21 13:00:00 0 7332 12.68 11.62 14.42 0 0 0
2019-02-21 14:00:00 0 7332 13.95 13.09 15 0 0 0
2019-02-21 15:00:00 0 7332 14.19 13.31 15.04 0 0 0
2019-02-21 16:00:00 0 7332 13.8 13.39 14.14 0 0 0
2019-02-21 17:00:00 0 7246 12.68 11.64 13.82 0 0 0
2019-02-21 18:00:00 0 7158 8.97 7.05 11.11 0 0 0
2019-02-21 19:00:00 0 7080 5.26 3.82 6.97 0 0 0
2019-02-21 20:00:00 0 7050 3.55 3.08 4.21 0 0 0
2019-02-21 21:00:00 0 7040 3.75 3.05 4.3 0 0 0
2019-02-21 22:00:00 0 7050 3.48 2.91 4.19 0 0 0
2019-02-21 23:00:00 0 7050 2.33 1.44 3.12 0 0 0
2019-02-22 00:00:00 0 7020 2.04 1.44 2.62 0 0 0
2019-02-22 01:00:00 0 7030 2.47 2.03 2.67 0 0 0
2019-02-22 02:00:00 0 7020 3.19 2.57 3.69 0 0 0
2019-02-22 03:00:00 0 7030 3.84 3.7 4.25 0 0 0
2019-02-22 04:00:00 0.8 7000 4.97 4.75 5.03 0 0 0
2019-02-22 05:00:00 1 7000 5.31 5.07 5.47 0.96 0
2019-02-22 06:00:00 0.8 7020 5.59 5.45 5.64 0 0 0
2019-02-22 07:00:00 0.8 7010 5.65 5.58 5.75 47.41 2.3 0
2019-02-22 08:00:00 0.2 7020 5.44 5.38 5.53 87.22 3 -4.6
2019-02-22 09:00:00 0 7050 5.69 5.51 5.76 100 5.6 5.5
2019-02-22 10:00:00 0 7206 6.03 5.75 6.54 100 5.9 5.7
2019-02-22 11:00:00 0 7314 7.71 6.71 8.47 100 7.6 6.7
2019-02-22 12:00:00 0 7324 7.27 6.84 7.99 100 7.2 6.8
2019-02-22 13:00:00 0 7324 7.92 7.45 8.52 100 7.8 7.4
2019-02-22 14:00:00 0.2 7314 7.98 7.74 8.18 100 7.9 7.7
2019-02-22 15:00:00 0 7226 7.98 7.85 8.15 35.6 -5.9 0
2019-02-22 16:00:00 0 7138 7.27 5.29 7.95 1.15 0
2019-02-22 17:00:00 0.2 6982 4.42 3.77 4.97 43.69 0
2019-02-22 18:00:00 0 7000 3.44 3.08 3.77 84.25 0.2 -12.5
2019-02-22 19:00:00 0 6952 1.84 0.61 2.98 52.93 0
2019-02-22 20:00:00 0 6922 0.31 -0.03 0.58 40.26 -11.8 -17.1